sensor_id;sensor_type;location;lat;lon;timestamp;P1;durP1;ratioP1;P2;durP2;ratioP2
20365;SDS011;10341;49.894;8.822;2022-11-04T00:04:46;5.00;;;3.05;;
20365;SDS011;10341;49.894;8.822;2022-11-04T00:10:06;4.30;;;2.45;;
20365;SDS011;10341;49.894;8.822;2022-11-04T00:15:25;3.55;;;2.30;;
20365;SDS011;10341;49.894;8.822;2022-11-04T00:21:11;3.88;;;2.13;;
20365;SDS011;10341;49.894;8.822;2022-11-04T00:26:49;3.15;;;1.85;;
20365;SDS011;10341;49.894;8.822;2022-11-04T00:32:27;2.10;;;1.60;;
20365;SDS011;10341;49.894;8.822;2022-11-04T00:38:05;2.60;;;1.60;;
20365;SDS011;10341;49.894;8.822;2022-11-04T00:43:25;2.08;;;1.40;;
20365;SDS011;10341;49.894;8.822;2022-11-04T00:48:44;1.70;;;1.35;;
20365;SDS011;10341;49.894;8.822;2022-11-04T00:54:04;2.00;;;1.52;;
20365;SDS011;10341;49.894;8.822;2022-11-04T00:59:24;3.08;;;1.52;;
20365;SDS011;10341;49.894;8.822;2022-11-04T01:04:43;2.40;;;1.30;;
20365;SDS011;10341;49.894;8.822;2022-11-04T01:10:04;2.92;;;1.40;;
20365;SDS011;10341;49.894;8.822;2022-11-04T01:20:44;1.88;;;1.20;;
20365;SDS011;10341;49.894;8.822;2022-11-04T01:26:04;2.40;;;1.10;;
20365;SDS011;10341;49.894;8.822;2022-11-04T01:31:28;1.95;;;1.10;;
20365;SDS011;10341;49.894;8.822;2022-11-04T01:36:49;2.22;;;1.10;;
20365;SDS011;10341;49.894;8.822;2022-11-04T01:42:11;1.90;;;1.15;;
20365;SDS011;10341;49.894;8.822;2022-11-04T01:47:39;1.58;;;1.08;;
20365;SDS011;10341;49.894;8.822;2022-11-04T01:58:28;1.45;;;1.02;;
20365;SDS011;10341;49.894;8.822;2022-11-04T02:03:53;2.10;;;1.48;;
20365;SDS011;10341;49.894;8.822;2022-11-04T02:09:36;1.40;;;1.30;;
20365;SDS011;10341;49.894;8.822;2022-11-04T02:14:58;1.67;;;1.30;;
20365;SDS011;10341;49.894;8.822;2022-11-04T02:20:24;1.63;;;1.10;;
20365;SDS011;10341;49.894;8.822;2022-11-04T02:31:15;2.47;;;1.30;;
20365;SDS011;10341;49.894;8.822;2022-11-04T02:42:15;1.98;;;1.40;;
20365;SDS011;10341;49.894;8.822;2022-11-04T02:47:59;2.60;;;1.20;;
20365;SDS011;10341;49.894;8.822;2022-11-04T02:58:54;1.52;;;0.85;;
20365;SDS011;10341;49.894;8.822;2022-11-04T03:04:19;2.58;;;0.90;;
20365;SDS011;10341;49.894;8.822;2022-11-04T03:09:57;1.20;;;1.00;;
20365;SDS011;10341;49.894;8.822;2022-11-04T03:15:22;1.25;;;0.80;;
20365;SDS011;10341;49.894;8.822;2022-11-04T03:20:46;1.10;;;1.00;;
20365;SDS011;10341;49.894;8.822;2022-11-04T03:26:31;0.70;;;0.70;;
20365;SDS011;10341;49.894;8.822;2022-11-04T03:32:06;1.70;;;0.93;;
20365;SDS011;10341;49.894;8.822;2022-11-04T03:37:47;2.03;;;0.60;;
20365;SDS011;10341;49.894;8.822;2022-11-04T03:43:12;0.75;;;0.70;;
20365;SDS011;10341;49.894;8.822;2022-11-04T03:48:35;1.35;;;0.80;;
20365;SDS011;10341;49.894;8.822;2022-11-04T03:53:54;1.27;;;0.93;;
20365;SDS011;10341;49.894;8.822;2022-11-04T04:16:42;2.33;;;1.48;;
20365;SDS011;10341;49.894;8.822;2022-11-04T04:22:06;3.90;;;1.90;;
20365;SDS011;10341;49.894;8.822;2022-11-04T04:27:31;2.25;;;1.50;;
20365;SDS011;10341;49.894;8.822;2022-11-04T04:32:57;4.75;;;1.30;;
20365;SDS011;10341;49.894;8.822;2022-11-04T04:38:28;2.58;;;1.63;;
20365;SDS011;10341;49.894;8.822;2022-11-04T04:44:17;3.67;;;1.50;;
20365;SDS011;10341;49.894;8.822;2022-11-04T04:50:04;5.38;;;1.38;;
20365;SDS011;10341;49.894;8.822;2022-11-04T04:55:24;3.67;;;1.40;;
20365;SDS011;10341;49.894;8.822;2022-11-04T05:00:44;7.80;;;1.80;;
20365;SDS011;10341;49.894;8.822;2022-11-04T05:06:03;3.65;;;1.70;;
20365;SDS011;10341;49.894;8.822;2022-11-04T05:11:23;4.03;;;1.45;;
20365;SDS011;10341;49.894;8.822;2022-11-04T05:16:42;2.78;;;1.52;;
20365;SDS011;10341;49.894;8.822;2022-11-04T05:22:03;2.58;;;1.60;;
20365;SDS011;10341;49.894;8.822;2022-11-04T05:27:22;4.38;;;1.40;;
20365;SDS011;10341;49.894;8.822;2022-11-04T05:32:42;2.60;;;1.50;;
20365;SDS011;10341;49.894;8.822;2022-11-04T05:38:01;6.07;;;1.50;;
20365;SDS011;10341;49.894;8.822;2022-11-04T05:43:21;3.60;;;1.50;;
20365;SDS011;10341;49.894;8.822;2022-11-04T05:48:40;6.07;;;1.58;;
20365;SDS011;10341;49.894;8.822;2022-11-04T05:54:00;5.30;;;1.75;;
20365;SDS011;10341;49.894;8.822;2022-11-04T05:59:19;7.68;;;1.90;;
20365;SDS011;10341;49.894;8.822;2022-11-04T06:04:39;4.13;;;1.50;;
20365;SDS011;10341;49.894;8.822;2022-11-04T06:09:58;4.43;;;1.58;;
20365;SDS011;10341;49.894;8.822;2022-11-04T06:15:18;5.03;;;1.90;;
20365;SDS011;10341;49.894;8.822;2022-11-04T06:20:37;4.60;;;2.10;;
20365;SDS011;10341;49.894;8.822;2022-11-04T06:25:57;3.15;;;1.70;;
20365;SDS011;10341;49.894;8.822;2022-11-04T06:31:17;5.80;;;1.70;;
20365;SDS011;10341;49.894;8.822;2022-11-04T06:36:37;9.60;;;2.08;;
20365;SDS011;10341;49.894;8.822;2022-11-04T06:41:56;4.35;;;1.88;;
20365;SDS011;10341;49.894;8.822;2022-11-04T06:47:16;2.90;;;1.50;;
20365;SDS011;10341;49.894;8.822;2022-11-04T06:52:36;3.55;;;1.50;;
20365;SDS011;10341;49.894;8.822;2022-11-04T06:57:55;3.65;;;1.58;;
20365;SDS011;10341;49.894;8.822;2022-11-04T07:03:15;2.15;;;1.23;;
20365;SDS011;10341;49.894;8.822;2022-11-04T07:08:34;2.80;;;1.95;;
20365;SDS011;10341;49.894;8.822;2022-11-04T07:13:54;4.32;;;1.70;;
20365;SDS011;10341;49.894;8.822;2022-11-04T07:19:13;2.25;;;1.40;;
20365;SDS011;10341;49.894;8.822;2022-11-04T07:24:33;3.10;;;1.40;;
20365;SDS011;10341;49.894;8.822;2022-11-04T07:29:53;4.60;;;1.60;;
20365;SDS011;10341;49.894;8.822;2022-11-04T07:35:13;6.03;;;1.60;;
20365;SDS011;10341;49.894;8.822;2022-11-04T07:40:32;4.68;;;1.70;;
20365;SDS011;10341;49.894;8.822;2022-11-04T07:45:58;3.22;;;1.20;;
20365;SDS011;10341;49.894;8.822;2022-11-04T07:51:21;5.03;;;1.23;;
20365;SDS011;10341;49.894;8.822;2022-11-04T07:56:40;5.13;;;1.70;;
20365;SDS011;10341;49.894;8.822;2022-11-04T08:02:00;7.82;;;2.13;;
20365;SDS011;10341;49.894;8.822;2022-11-04T08:07:19;4.93;;;1.80;;
20365;SDS011;10341;49.894;8.822;2022-11-04T08:12:38;5.00;;;2.10;;
20365;SDS011;10341;49.894;8.822;2022-11-04T08:17:58;3.30;;;1.50;;
20365;SDS011;10341;49.894;8.822;2022-11-04T08:23:17;3.40;;;1.20;;
20365;SDS011;10341;49.894;8.822;2022-11-04T08:28:38;6.70;;;1.50;;
20365;SDS011;10341;49.894;8.822;2022-11-04T08:33:58;4.20;;;1.20;;
20365;SDS011;10341;49.894;8.822;2022-11-04T08:39:18;6.15;;;2.47;;
20365;SDS011;10341;49.894;8.822;2022-11-04T08:44:38;6.13;;;1.65;;
20365;SDS011;10341;49.894;8.822;2022-11-04T08:49:58;3.75;;;1.42;;
20365;SDS011;10341;49.894;8.822;2022-11-04T08:55:17;5.55;;;1.90;;
20365;SDS011;10341;49.894;8.822;2022-11-04T09:00:37;8.73;;;3.10;;
20365;SDS011;10341;49.894;8.822;2022-11-04T09:11:17;7.63;;;1.35;;
20365;SDS011;10341;49.894;8.822;2022-11-04T09:16:37;2.00;;;1.23;;
20365;SDS011;10341;49.894;8.822;2022-11-04T09:21:58;4.93;;;3.80;;
20365;SDS011;10341;49.894;8.822;2022-11-04T09:27:17;2.40;;;1.10;;
20365;SDS011;10341;49.894;8.822;2022-11-04T09:32:37;6.80;;;1.55;;
20365;SDS011;10341;49.894;8.822;2022-11-04T09:37:58;2.63;;;1.10;;
20365;SDS011;10341;49.894;8.822;2022-11-04T09:49:00;4.65;;;0.90;;
20365;SDS011;10341;49.894;8.822;2022-11-04T09:54:31;4.07;;;0.90;;
20365;SDS011;10341;49.894;8.822;2022-11-04T10:00:16;2.15;;;0.90;;
20365;SDS011;10341;49.894;8.822;2022-11-04T10:11:03;2.42;;;1.00;;
20365;SDS011;10341;49.894;8.822;2022-11-04T10:22:26;3.58;;;1.27;;
20365;SDS011;10341;49.894;8.822;2022-11-04T10:27:51;2.10;;;1.00;;
20365;SDS011;10341;49.894;8.822;2022-11-04T10:33:23;1.85;;;0.98;;
20365;SDS011;10341;49.894;8.822;2022-11-04T10:38:52;3.17;;;0.98;;
20365;SDS011;10341;49.894;8.822;2022-11-04T10:44:15;3.00;;;0.70;;
20365;SDS011;10341;49.894;8.822;2022-11-04T11:00:51;1.65;;;0.80;;
20365;SDS011;10341;49.894;8.822;2022-11-04T11:06:13;2.55;;;0.75;;
20365;SDS011;10341;49.894;8.822;2022-11-04T11:11:42;3.97;;;1.02;;
20365;SDS011;10341;49.894;8.822;2022-11-04T11:22:40;2.05;;;0.60;;
20365;SDS011;10341;49.894;8.822;2022-11-04T11:28:10;2.85;;;0.80;;
20365;SDS011;10341;49.894;8.822;2022-11-04T11:33:39;3.65;;;1.02;;
20365;SDS011;10341;49.894;8.822;2022-11-04T11:39:16;3.42;;;0.70;;
20365;SDS011;10341;49.894;8.822;2022-11-04T11:44:40;4.03;;;1.10;;
20365;SDS011;10341;49.894;8.822;2022-11-04T11:55:35;3.40;;;1.13;;
20365;SDS011;10341;49.894;8.822;2022-11-04T12:06:43;2.35;;;0.80;;
20365;SDS011;10341;49.894;8.822;2022-11-04T12:18:17;3.30;;;0.80;;
20365;SDS011;10341;49.894;8.822;2022-11-04T13:08:44;3.88;;;1.13;;
20365;SDS011;10341;49.894;8.822;2022-11-04T13:14:09;3.05;;;1.00;;
20365;SDS011;10341;49.894;8.822;2022-11-04T13:19:42;2.40;;;0.90;;
20365;SDS011;10341;49.894;8.822;2022-11-04T13:25:11;5.82;;;1.33;;
20365;SDS011;10341;49.894;8.822;2022-11-04T13:30:38;3.42;;;1.00;;
20365;SDS011;10341;49.894;8.822;2022-11-04T13:46:49;2.22;;;0.90;;
20365;SDS011;10341;49.894;8.822;2022-11-04T13:52:12;3.38;;;1.00;;
20365;SDS011;10341;49.894;8.822;2022-11-04T13:57:34;4.15;;;1.25;;
20365;SDS011;10341;49.894;8.822;2022-11-04T14:09:22;3.15;;;1.13;;
20365;SDS011;10341;49.894;8.822;2022-11-04T14:14:39;5.10;;;1.48;;
20365;SDS011;10341;49.894;8.822;2022-11-04T14:30:44;1.10;;;0.93;;
20365;SDS011;10341;49.894;8.822;2022-11-04T14:36:22;2.85;;;1.10;;
20365;SDS011;10341;49.894;8.822;2022-11-04T14:41:50;3.42;;;1.25;;
20365;SDS011;10341;49.894;8.822;2022-11-04T14:47:18;4.05;;;1.60;;
20365;SDS011;10341;49.894;8.822;2022-11-04T14:52:52;3.85;;;1.58;;
20365;SDS011;10341;49.894;8.822;2022-11-04T14:58:24;5.10;;;1.50;;
20365;SDS011;10341;49.894;8.822;2022-11-04T15:03:45;5.43;;;1.90;;
20365;SDS011;10341;49.894;8.822;2022-11-04T15:09:16;5.30;;;1.50;;
20365;SDS011;10341;49.894;8.822;2022-11-04T15:14:41;5.35;;;1.77;;
20365;SDS011;10341;49.894;8.822;2022-11-04T15:20:00;3.80;;;1.80;;
20365;SDS011;10341;49.894;8.822;2022-11-04T15:25:22;8.82;;;2.55;;
20365;SDS011;10341;49.894;8.822;2022-11-04T15:30:42;2.95;;;1.98;;
20365;SDS011;10341;49.894;8.822;2022-11-04T15:36:01;3.47;;;2.00;;
20365;SDS011;10341;49.894;8.822;2022-11-04T15:47:02;5.22;;;2.67;;
20365;SDS011;10341;49.894;8.822;2022-11-04T15:52:37;3.55;;;2.10;;
20365;SDS011;10341;49.894;8.822;2022-11-04T16:03:32;6.90;;;3.03;;
20365;SDS011;10341;49.894;8.822;2022-11-04T16:09:06;4.88;;;3.08;;
20365;SDS011;10341;49.894;8.822;2022-11-04T16:14:32;6.95;;;3.22;;
20365;SDS011;10341;49.894;8.822;2022-11-04T16:19:55;6.40;;;3.30;;
20365;SDS011;10341;49.894;8.822;2022-11-04T16:25:18;6.10;;;2.88;;
20365;SDS011;10341;49.894;8.822;2022-11-04T16:30:40;6.13;;;3.40;;
20365;SDS011;10341;49.894;8.822;2022-11-04T16:36:17;7.07;;;3.75;;
20365;SDS011;10341;49.894;8.822;2022-11-04T16:41:43;3.67;;;2.90;;
20365;SDS011;10341;49.894;8.822;2022-11-04T16:47:02;3.13;;;2.70;;
20365;SDS011;10341;49.894;8.822;2022-11-04T16:52:21;3.22;;;2.63;;
20365;SDS011;10341;49.894;8.822;2022-11-04T16:57:43;5.70;;;3.00;;
20365;SDS011;10341;49.894;8.822;2022-11-04T17:03:22;4.47;;;2.58;;
20365;SDS011;10341;49.894;8.822;2022-11-04T17:08:42;3.15;;;2.83;;
20365;SDS011;10341;49.894;8.822;2022-11-04T17:14:02;5.18;;;4.03;;
20365;SDS011;10341;49.894;8.822;2022-11-04T17:19:21;4.70;;;3.50;;
20365;SDS011;10341;49.894;8.822;2022-11-04T17:24:41;8.38;;;4.47;;
20365;SDS011;10341;49.894;8.822;2022-11-04T17:30:00;8.38;;;4.50;;
20365;SDS011;10341;49.894;8.822;2022-11-04T17:35:19;7.95;;;5.15;;
20365;SDS011;10341;49.894;8.822;2022-11-04T17:40:39;7.55;;;4.20;;
20365;SDS011;10341;49.894;8.822;2022-11-04T17:46:17;7.10;;;3.47;;
20365;SDS011;10341;49.894;8.822;2022-11-04T17:51:52;5.97;;;3.72;;
20365;SDS011;10341;49.894;8.822;2022-11-04T17:57:14;5.85;;;4.07;;
20365;SDS011;10341;49.894;8.822;2022-11-04T18:02:35;7.22;;;3.60;;
20365;SDS011;10341;49.894;8.822;2022-11-04T18:07:55;7.93;;;4.93;;
20365;SDS011;10341;49.894;8.822;2022-11-04T18:13:16;7.97;;;4.75;;
20365;SDS011;10341;49.894;8.822;2022-11-04T18:18:35;9.65;;;4.60;;
20365;SDS011;10341;49.894;8.822;2022-11-04T18:23:55;5.40;;;4.00;;
20365;SDS011;10341;49.894;8.822;2022-11-04T18:29:15;8.07;;;5.10;;
20365;SDS011;10341;49.894;8.822;2022-11-04T18:34:34;8.73;;;4.70;;
20365;SDS011;10341;49.894;8.822;2022-11-04T18:39:54;11.20;;;4.78;;
20365;SDS011;10341;49.894;8.822;2022-11-04T18:45:14;10.25;;;5.53;;
20365;SDS011;10341;49.894;8.822;2022-11-04T18:50:33;8.82;;;5.68;;
20365;SDS011;10341;49.894;8.822;2022-11-04T18:55:54;6.80;;;5.35;;
20365;SDS011;10341;49.894;8.822;2022-11-04T19:01:20;10.88;;;6.13;;
20365;SDS011;10341;49.894;8.822;2022-11-04T19:06:42;10.60;;;6.60;;
20365;SDS011;10341;49.894;8.822;2022-11-04T19:12:02;12.63;;;8.10;;
20365;SDS011;10341;49.894;8.822;2022-11-04T19:17:41;11.38;;;8.05;;
20365;SDS011;10341;49.894;8.822;2022-11-04T19:23:00;10.40;;;6.32;;
20365;SDS011;10341;49.894;8.822;2022-11-04T19:28:21;9.05;;;5.75;;
20365;SDS011;10341;49.894;8.822;2022-11-04T19:33:40;9.98;;;4.97;;
20365;SDS011;10341;49.894;8.822;2022-11-04T19:39:01;6.65;;;4.07;;
20365;SDS011;10341;49.894;8.822;2022-11-04T19:44:22;5.45;;;3.63;;
20365;SDS011;10341;49.894;8.822;2022-11-04T19:49:41;7.53;;;4.45;;
20365;SDS011;10341;49.894;8.822;2022-11-04T19:55:00;17.73;;;11.32;;
20365;SDS011;10341;49.894;8.822;2022-11-04T20:00:19;13.48;;;5.43;;
20365;SDS011;10341;49.894;8.822;2022-11-04T20:05:41;7.93;;;4.40;;
20365;SDS011;10341;49.894;8.822;2022-11-04T20:11:02;9.98;;;5.07;;
20365;SDS011;10341;49.894;8.822;2022-11-04T20:16:24;7.38;;;4.82;;
20365;SDS011;10341;49.894;8.822;2022-11-04T20:21:48;8.75;;;5.22;;
20365;SDS011;10341;49.894;8.822;2022-11-04T20:32:32;8.27;;;4.93;;
20365;SDS011;10341;49.894;8.822;2022-11-04T20:37:52;11.73;;;6.28;;
20365;SDS011;10341;49.894;8.822;2022-11-04T20:43:11;15.27;;;8.57;;
20365;SDS011;10341;49.894;8.822;2022-11-04T20:48:31;24.10;;;12.15;;
20365;SDS011;10341;49.894;8.822;2022-11-04T20:59:13;18.58;;;10.52;;
20365;SDS011;10341;49.894;8.822;2022-11-04T21:04:33;16.20;;;9.52;;
20365;SDS011;10341;49.894;8.822;2022-11-04T21:09:52;13.07;;;8.75;;
20365;SDS011;10341;49.894;8.822;2022-11-04T21:15:11;14.85;;;9.15;;
20365;SDS011;10341;49.894;8.822;2022-11-04T21:20:51;13.30;;;8.60;;
20365;SDS011;10341;49.894;8.822;2022-11-04T21:26:15;15.70;;;8.35;;
20365;SDS011;10341;49.894;8.822;2022-11-04T21:37:01;12.30;;;7.53;;
20365;SDS011;10341;49.894;8.822;2022-11-04T21:42:20;12.43;;;7.90;;
20365;SDS011;10341;49.894;8.822;2022-11-04T21:47:39;13.02;;;8.60;;
20365;SDS011;10341;49.894;8.822;2022-11-04T21:52:59;11.68;;;7.93;;
20365;SDS011;10341;49.894;8.822;2022-11-04T21:58:19;12.27;;;8.20;;
20365;SDS011;10341;49.894;8.822;2022-11-04T22:03:38;13.35;;;7.13;;
20365;SDS011;10341;49.894;8.822;2022-11-04T22:08:58;10.48;;;6.85;;
20365;SDS011;10341;49.894;8.822;2022-11-04T22:14:17;9.77;;;6.20;;
20365;SDS011;10341;49.894;8.822;2022-11-04T22:19:36;11.50;;;6.03;;
20365;SDS011;10341;49.894;8.822;2022-11-04T22:24:56;8.27;;;5.50;;
20365;SDS011;10341;49.894;8.822;2022-11-04T22:30:21;10.52;;;5.68;;
20365;SDS011;10341;49.894;8.822;2022-11-04T22:35:43;17.95;;;8.60;;
20365;SDS011;10341;49.894;8.822;2022-11-04T22:41:04;15.38;;;8.07;;
20365;SDS011;10341;49.894;8.822;2022-11-04T22:46:28;17.02;;;10.25;;
20365;SDS011;10341;49.894;8.822;2022-11-04T22:51:49;10.30;;;6.85;;
20365;SDS011;10341;49.894;8.822;2022-11-04T22:57:09;10.07;;;7.28;;
20365;SDS011;10341;49.894;8.822;2022-11-04T23:02:28;8.98;;;6.30;;
20365;SDS011;10341;49.894;8.822;2022-11-04T23:07:47;9.45;;;6.40;;
20365;SDS011;10341;49.894;8.822;2022-11-04T23:13:07;11.40;;;6.40;;
20365;SDS011;10341;49.894;8.822;2022-11-04T23:18:49;13.15;;;7.47;;
20365;SDS011;10341;49.894;8.822;2022-11-04T23:24:09;10.93;;;7.32;;
20365;SDS011;10341;49.894;8.822;2022-11-04T23:29:47;10.57;;;6.57;;
20365;SDS011;10341;49.894;8.822;2022-11-04T23:35:27;9.70;;;6.63;;
20365;SDS011;10341;49.894;8.822;2022-11-04T23:41:09;10.85;;;6.40;;
20365;SDS011;10341;49.894;8.822;2022-11-04T23:46:47;9.52;;;6.70;;
20365;SDS011;10341;49.894;8.822;2022-11-04T23:52:26;10.35;;;6.05;;
20365;SDS011;10341;49.894;8.822;2022-11-04T23:58:03;10.80;;;6.97;;
